Time;durP1;ratioP1;P1;durP2;ratioP2;P2;SDS_P1;SDS_P2;PMS_P1;PMS_P2;Temp;Humidity;BMP_temperature;BMP_pressure;BME280_temperature;BME280_humidity;BME280_pressure;Samples;Min_cycle;Max_cycle;Signal;HPM_P1;HPM_P2
2021/03/13 00:00:54;;;;;;;25.23;5.15;;;;;;;;;;2073562;28;20406;-82
2021/03/13 00:01:57;;;;;;;20.95;4.55;;;;;;;;;;2081392;28;20404;-82
2021/03/13 00:02:58;;;;;;;22.75;4.55;;;;;;;;;;2089644;28;20485;-82
2021/03/13 00:04:00;;;;;;;22.65;4.88;;;;;;;;;;2082259;28;20399;-82
2021/03/13 00:05:03;;;;;;;17.40;3.63;;;;;;;;;;2081622;28;20404;-82
2021/03/13 00:06:06;;;;;;;22.63;4.75;;;;;;;;;;2081590;28;21022;-82
2021/03/13 00:07:07;;;;;;;19.52;4.10;;;;;;;;;;2082060;28;20589;-81
2021/03/13 00:08:09;;;;;;;21.60;4.38;;;;;;;;;;2081862;28;20872;-82
2021/03/13 00:09:10;;;;;;;20.65;4.32;;;;;;;;;;2081633;28;20831;-81
2021/03/13 00:10:11;;;;;;;24.20;3.50;;;;;;;;;;2081905;28;20401;-82
2021/03/13 00:11:12;;;;;;;21.13;3.47;;;;;;;;;;2066304;28;20491;-80
2021/03/13 00:12:14;;;;;;;23.55;4.03;;;;;;;;;;2075886;28;20485;-81
2021/03/13 00:13:15;;;;;;;23.60;5.00;;;;;;;;;;2095468;28;20395;-79
2021/03/13 00:14:17;;;;;;;22.88;4.15;;;;;;;;;;2087062;28;20404;-80
2021/03/13 00:15:18;;;;;;;23.60;3.97;;;;;;;;;;2087037;28;20415;-80
2021/03/13 00:16:19;;;;;;;18.25;4.60;;;;;;;;;;2095482;28;20430;-83
2021/03/13 00:17:20;;;;;;;18.63;3.85;;;;;;;;;;2088070;28;20397;-82
2021/03/13 00:18:22;;;;;;;23.77;4.78;;;;;;;;;;2071404;28;20442;-81
2021/03/13 00:19:23;;;;;;;19.48;4.55;;;;;;;;;;2071177;28;20419;-82
2021/03/13 00:20:26;;;;;;;18.90;3.60;;;;;;;;;;2075982;28;20540;-82
2021/03/13 00:21:27;;;;;;;25.63;3.63;;;;;;;;;;2065958;28;20478;-81
2021/03/13 00:22:28;;;;;;;23.08;3.72;;;;;;;;;;2072135;28;20464;-82
2021/03/13 00:23:29;;;;;;;26.30;4.35;;;;;;;;;;2082137;28;20432;-82
2021/03/13 00:24:30;;;;;;;17.35;3.70;;;;;;;;;;2093082;28;20506;-83
2021/03/13 00:25:34;;;;;;;24.02;3.80;;;;;;;;;;2083038;28;20450;-81
2021/03/13 00:26:35;;;;;;;17.92;3.75;;;;;;;;;;2074026;28;20477;-81
2021/03/13 00:27:46;;;;;;;17.35;3.67;;;;;;;;;;2081065;28;20915;-82
2021/03/13 00:28:49;;;;;;;17.02;3.80;;;;;;;;;;2081827;28;20880;-82
2021/03/13 00:29:50;;;;;;;20.45;3.50;;;;;;;;;;2081629;28;20875;-82
2021/03/13 00:31:03;;;;;;;20.02;3.75;;;;;;;;;;2080425;28;20997;-82
2021/03/13 00:32:04;;;;;;;21.33;4.35;;;;;;;;;;2078732;28;20951;-82
2021/03/13 00:33:20;;;;;;;20.98;4.13;;;;;;;;;;2081262;28;20792;-82
2021/03/13 00:34:23;;;;;;;26.25;4.18;;;;;;;;;;2085904;28;20408;-81
2021/03/13 00:35:26;;;;;;;23.35;4.32;;;;;;;;;;2082384;28;20742;-81
2021/03/13 00:36:27;;;;;;;22.65;3.72;;;;;;;;;;2076526;28;20449;-82
2021/03/13 00:37:32;;;;;;;24.40;4.05;;;;;;;;;;2083007;28;20495;-82
2021/03/13 00:38:35;;;;;;;18.30;3.30;;;;;;;;;;2090592;28;20457;-81
2021/03/13 00:39:36;;;;;;;24.27;3.63;;;;;;;;;;2083034;28;20400;-81
2021/03/13 00:40:39;;;;;;;20.33;3.35;;;;;;;;;;2074657;28;20441;-82
2021/03/13 00:41:43;;;;;;;18.92;4.03;;;;;;;;;;2074484;28;20433;-82
2021/03/13 00:42:44;;;;;;;15.45;3.83;;;;;;;;;;2082328;28;20428;-82
2021/03/13 00:43:45;;;;;;;16.77;3.95;;;;;;;;;;2087171;28;20404;-82
2021/03/13 00:44:48;;;;;;;14.45;3.42;;;;;;;;;;2087671;28;20392;-82
2021/03/13 00:45:49;;;;;;;19.08;4.30;;;;;;;;;;2085463;28;20507;-82
2021/03/13 00:46:50;;;;;;;17.80;3.78;;;;;;;;;;2095141;28;20451;-83
2021/03/13 00:47:52;;;;;;;15.68;3.70;;;;;;;;;;2089693;28;20479;-81
2021/03/13 00:48:54;;;;;;;15.63;3.72;;;;;;;;;;2073627;28;20414;-82
2021/03/13 00:49:55;;;;;;;19.50;4.45;;;;;;;;;;2075161;28;20486;-82
2021/03/13 00:50:57;;;;;;;16.30;3.83;;;;;;;;;;2085785;28;20483;-83
2021/03/13 00:52:00;;;;;;;16.55;4.22;;;;;;;;;;2081090;28;20431;-82
2021/03/13 00:53:02;;;;;;;15.48;3.97;;;;;;;;;;2081402;28;20412;-82
2021/03/13 00:54:03;;;;;;;15.93;3.83;;;;;;;;;;2081330;28;20401;-82
2021/03/13 00:55:06;;;;;;;15.40;3.60;;;;;;;;;;2081423;28;20436;-82
2021/03/13 00:56:07;;;;;;;15.02;3.47;;;;;;;;;;2079566;28;20396;-83
2021/03/13 00:57:08;;;;;;;14.95;3.92;;;;;;;;;;2080436;28;20918;-82
2021/03/13 00:58:09;;;;;;;18.30;4.63;;;;;;;;;;2080501;28;20471;-83
2021/03/13 00:59:11;;;;;;;16.67;4.15;;;;;;;;;;2078775;28;20401;-82
2021/03/13 01:00:16;;;;;;;18.63;5.43;;;;;;;;;;2081011;28;20489;-82
2021/03/13 01:01:17;;;;;;;16.25;4.18;;;;;;;;;;2080734;28;20463;-82
2021/03/13 01:02:18;;;;;;;14.10;3.80;;;;;;;;;;2081065;28;20413;-82
2021/03/13 01:03:19;;;;;;;16.40;3.35;;;;;;;;;;2081307;28;20424;-81
2021/03/13 01:04:20;;;;;;;16.00;3.35;;;;;;;;;;2080503;28;20509;-82
2021/03/13 01:05:21;;;;;;;17.58;3.90;;;;;;;;;;2080503;28;20511;-82
2021/03/13 01:06:22;;;;;;;19.17;4.07;;;;;;;;;;2088576;28;20461;-82
2021/03/13 01:07:24;;;;;;;12.35;3.90;;;;;;;;;;2089030;28;20444;-81
2021/03/13 01:08:25;;;;;;;16.13;3.28;;;;;;;;;;2087794;28;20438;-81
2021/03/13 01:09:26;;;;;;;18.15;3.95;;;;;;;;;;2081114;28;20483;-81
2021/03/13 01:10:34;;;;;;;13.45;3.33;;;;;;;;;;2081004;28;21008;-81
2021/03/13 01:11:35;;;;;;;17.05;3.80;;;;;;;;;;2079530;28;20428;-82
2021/03/13 01:12:37;;;;;;;12.73;2.95;;;;;;;;;;2080279;28;20396;-81
2021/03/13 01:13:39;;;;;;;18.58;3.72;;;;;;;;;;2080505;28;20484;-82
2021/03/13 01:14:41;;;;;;;13.77;3.42;;;;;;;;;;2080620;28;20405;-81
2021/03/13 01:15:44;;;;;;;13.10;3.63;;;;;;;;;;2091756;28;20411;-82
2021/03/13 01:16:45;;;;;;;14.98;3.45;;;;;;;;;;2081989;28;20404;-81
2021/03/13 01:17:47;;;;;;;12.07;3.28;;;;;;;;;;2064709;28;20921;-81
2021/03/13 01:18:49;;;;;;;12.90;2.33;;;;;;;;;;2072609;28;20441;-81
2021/03/13 01:19:50;;;;;;;13.45;3.20;;;;;;;;;;2080308;28;20951;-82
2021/03/13 01:20:52;;;;;;;14.98;2.70;;;;;;;;;;2080872;28;20403;-81
2021/03/13 01:21:54;;;;;;;15.77;2.47;;;;;;;;;;2088106;28;20395;-80
2021/03/13 01:22:55;;;;;;;13.75;2.80;;;;;;;;;;2088873;28;20442;-81
2021/03/13 01:23:56;;;;;;;12.27;2.22;;;;;;;;;;2088264;28;20411;-82
2021/03/13 01:24:57;;;;;;;13.07;2.00;;;;;;;;;;2087430;28;20475;-81
2021/03/13 01:25:58;;;;;;;10.38;1.98;;;;;;;;;;2088251;28;20444;-81
2021/03/13 01:26:59;;;;;;;16.80;2.22;;;;;;;;;;2072378;28;20831;-82
2021/03/13 01:28:01;;;;;;;12.88;2.60;;;;;;;;;;2071718;28;20505;-80
2021/03/13 01:29:02;;;;;;;14.00;2.58;;;;;;;;;;2081078;28;20471;-81
2021/03/13 01:30:08;;;;;;;13.63;2.70;;;;;;;;;;2080819;28;20425;-81
2021/03/13 01:31:09;;;;;;;12.88;2.55;;;;;;;;;;2072361;28;20390;-80
2021/03/13 01:32:11;;;;;;;16.95;2.30;;;;;;;;;;2072899;28;20394;-81
2021/03/13 01:33:12;;;;;;;14.30;2.30;;;;;;;;;;2080542;28;20442;-80
2021/03/13 01:34:13;;;;;;;16.05;2.35;;;;;;;;;;2072127;28;20785;-81
2021/03/13 01:35:15;;;;;;;13.32;2.55;;;;;;;;;;2080614;28;20935;-81
2021/03/13 01:36:16;;;;;;;16.45;2.85;;;;;;;;;;2088131;28;20402;-81
2021/03/13 01:37:21;;;;;;;9.57;1.92;;;;;;;;;;2079775;28;20483;-81
2021/03/13 01:38:22;;;;;;;12.55;2.50;;;;;;;;;;2080029;28;20458;-81
2021/03/13 01:39:23;;;;;;;12.50;2.77;;;;;;;;;;2080532;28;20465;-81
2021/03/13 01:40:24;;;;;;;12.95;2.30;;;;;;;;;;2080771;28;20426;-81
2021/03/13 01:41:25;;;;;;;11.35;2.30;;;;;;;;;;2084463;28;20827;-81
2021/03/13 01:42:26;;;;;;;18.38;3.15;;;;;;;;;;2082304;28;20404;-80
2021/03/13 01:43:28;;;;;;;9.02;2.30;;;;;;;;;;2081119;28;20409;-81
2021/03/13 01:44:29;;;;;;;10.35;2.25;;;;;;;;;;2080701;28;20405;-81
2021/03/13 01:45:31;;;;;;;10.45;2.53;;;;;;;;;;2080375;28;20420;-80
2021/03/13 01:46:32;;;;;;;13.40;2.58;;;;;;;;;;2079996;28;20488;-81
2021/03/13 01:47:34;;;;;;;12.45;3.03;;;;;;;;;;2081022;28;20440;-81
2021/03/13 01:48:41;;;;;;;15.10;3.10;;;;;;;;;;2071819;28;20892;-80
2021/03/13 01:49:43;;;;;;;11.75;2.42;;;;;;;;;;2064702;28;20915;-81
2021/03/13 01:50:46;;;;;;;17.23;3.47;;;;;;;;;;2080266;28;20473;-81
2021/03/13 01:51:47;;;;;;;10.88;2.97;;;;;;;;;;2080819;28;20484;-81
2021/03/13 01:52:51;;;;;;;12.83;3.50;;;;;;;;;;2080925;28;20393;-81
2021/03/13 01:53:52;;;;;;;17.90;3.45;;;;;;;;;;2088337;28;20460;-81
2021/03/13 01:54:53;;;;;;;11.13;3.00;;;;;;;;;;2080447;28;20408;-80
2021/03/13 01:55:54;;;;;;;13.90;2.95;;;;;;;;;;2080247;28;21449;-81
2021/03/13 01:56:56;;;;;;;12.32;3.15;;;;;;;;;;2080650;28;20452;-81
2021/03/13 01:57:57;;;;;;;17.42;3.55;;;;;;;;;;2080626;28;20443;-81
2021/03/13 01:58:58;;;;;;;14.30;3.65;;;;;;;;;;2080099;28;20416;-81
2021/03/13 02:00:00;;;;;;;10.93;2.50;;;;;;;;;;2080390;28;20416;-81
2021/03/13 02:01:01;;;;;;;11.80;2.92;;;;;;;;;;2088401;28;20477;-80
2021/03/13 02:02:14;;;;;;;11.57;2.80;;;;;;;;;;2079424;28;21084;-81
2021/03/13 02:03:16;;;;;;;15.85;3.53;;;;;;;;;;2080033;28;20393;-81
2021/03/13 02:04:17;;;;;;;10.90;2.75;;;;;;;;;;2080318;28;20396;-81
2021/03/13 02:05:23;;;;;;;13.07;3.55;;;;;;;;;;2080672;28;20431;-81
2021/03/13 02:06:25;;;;;;;13.32;3.58;;;;;;;;;;2081025;28;20495;-81
2021/03/13 02:07:37;;;;;;;14.05;3.40;;;;;;;;;;2086426;28;20432;-81
2021/03/13 02:08:53;;;;;;;12.77;3.40;;;;;;;;;;2080832;28;20415;-81
2021/03/13 02:10:02;;;;;;;14.45;4.47;;;;;;;;;;2080662;28;21058;-81
2021/03/13 02:11:27;;;;;;;13.32;3.42;;;;;;;;;;2088379;28;20422;-81
2021/03/13 02:12:38;;;;;;;13.25;4.00;;;;;;;;;;2084879;28;20458;-80
2021/03/13 02:14:23;;;;;;;15.27;4.65;;;;;;;;;;2079891;28;20440;-80
2021/03/13 02:15:40;;;;;;;13.60;3.67;;;;;;;;;;2083555;28;20464;-82
2021/03/13 02:17:09;;;;;;;10.52;3.53;;;;;;;;;;2086193;28;20426;-80
2021/03/13 02:18:36;;;;;;;11.82;4.00;;;;;;;;;;2078829;28;20423;-81
2021/03/13 02:19:53;;;;;;;13.82;3.80;;;;;;;;;;2081018;28;20484;-80
2021/03/13 02:21:12;;;;;;;12.43;3.72;;;;;;;;;;2081191;28;20872;-81
2021/03/13 02:22:15;;;;;;;12.10;3.53;;;;;;;;;;2080924;28;20491;-81
2021/03/13 02:23:20;;;;;;;13.43;3.95;;;;;;;;;;2081092;28;20475;-81
2021/03/13 02:24:25;;;;;;;12.88;4.60;;;;;;;;;;2079747;28;20891;-81
2021/03/13 02:25:44;;;;;;;15.90;3.60;;;;;;;;;;2080431;28;20488;-81
2021/03/13 02:27:04;;;;;;;10.77;3.25;;;;;;;;;;2079561;28;20423;-81
2021/03/13 02:28:10;;;;;;;11.85;3.30;;;;;;;;;;2080158;28;20861;-81
2021/03/13 02:29:11;;;;;;;14.57;3.90;;;;;;;;;;2080244;28;20416;-81
2021/03/13 02:30:27;;;;;;;13.38;4.40;;;;;;;;;;2080109;28;20403;-81
2021/03/13 02:31:28;;;;;;;13.02;3.72;;;;;;;;;;2080764;28;20483;-81
2021/03/13 02:32:54;;;;;;;14.32;3.05;;;;;;;;;;2082223;28;20420;-80
2021/03/13 02:34:00;;;;;;;13.57;3.67;;;;;;;;;;2082150;28;20491;-81
2021/03/13 02:35:08;;;;;;;10.75;2.80;;;;;;;;;;2080356;28;20397;-81
2021/03/13 02:36:11;;;;;;;11.63;2.63;;;;;;;;;;2080359;28;20404;-81
2021/03/13 02:37:21;;;;;;;12.23;3.35;;;;;;;;;;2080731;28;20424;-81
2021/03/13 02:38:25;;;;;;;12.82;3.33;;;;;;;;;;2080535;28;20447;-81
2021/03/13 02:39:28;;;;;;;7.97;2.90;;;;;;;;;;2078880;28;20405;-81
2021/03/13 02:40:31;;;;;;;9.38;2.70;;;;;;;;;;2072165;28;20486;-81
2021/03/13 02:41:41;;;;;;;10.03;3.33;;;;;;;;;;2072469;28;20616;-81
2021/03/13 02:42:51;;;;;;;8.90;3.20;;;;;;;;;;2072042;28;20536;-81
2021/03/13 02:44:00;;;;;;;11.88;3.08;;;;;;;;;;2080191;28;20408;-81
2021/03/13 02:45:01;;;;;;;9.55;2.60;;;;;;;;;;2081195;28;20483;-81
2021/03/13 02:46:03;;;;;;;9.15;2.72;;;;;;;;;;2081434;28;20478;-81
2021/03/13 02:47:06;;;;;;;14.93;3.60;;;;;;;;;;2082795;28;20423;-81
2021/03/13 02:48:10;;;;;;;9.95;3.10;;;;;;;;;;2084013;28;20440;-81
2021/03/13 02:49:13;;;;;;;10.10;3.08;;;;;;;;;;2077402;28;20402;-81
2021/03/13 02:50:15;;;;;;;9.73;2.63;;;;;;;;;;2085507;28;20412;-80
2021/03/13 02:51:18;;;;;;;11.15;3.35;;;;;;;;;;2087316;28;20441;-80
2021/03/13 02:52:20;;;;;;;14.65;3.40;;;;;;;;;;2087611;28;20407;-80
2021/03/13 02:53:24;;;;;;;11.30;3.63;;;;;;;;;;2091836;28;20921;-80
2021/03/13 02:54:25;;;;;;;12.45;3.58;;;;;;;;;;2073801;28;20398;-81
2021/03/13 02:55:28;;;;;;;11.00;3.15;;;;;;;;;;2072955;28;20497;-81
2021/03/13 02:56:31;;;;;;;11.77;3.50;;;;;;;;;;2081169;28;20432;-81
2021/03/13 02:57:34;;;;;;;14.13;3.53;;;;;;;;;;2083151;28;20432;-81
2021/03/13 02:58:37;;;;;;;10.35;3.03;;;;;;;;;;2088099;28;20431;-81
2021/03/13 02:59:40;;;;;;;11.80;3.60;;;;;;;;;;2086450;28;20472;-82
2021/03/13 03:00:42;;;;;;;13.65;3.35;;;;;;;;;;2087946;28;20523;-81
2021/03/13 03:01:50;;;;;;;12.43;3.50;;;;;;;;;;2087853;28;20405;-80
2021/03/13 03:02:56;;;;;;;13.02;3.50;;;;;;;;;;2082174;28;20377;-81
2021/03/13 03:03:58;;;;;;;12.88;2.90;;;;;;;;;;2080117;28;20458;-81
2021/03/13 03:05:02;;;;;;;14.32;2.80;;;;;;;;;;2081565;28;20492;-81
2021/03/13 03:06:05;;;;;;;9.70;2.97;;;;;;;;;;2081808;28;20796;-81
2021/03/13 03:07:12;;;;;;;9.43;2.85;;;;;;;;;;2084127;28;20408;-80
2021/03/13 03:08:15;;;;;;;11.57;3.13;;;;;;;;;;2085542;28;20475;-81
2021/03/13 03:09:19;;;;;;;10.90;2.87;;;;;;;;;;2084987;28;20515;-80
2021/03/13 03:10:24;;;;;;;12.43;2.95;;;;;;;;;;2084870;28;20424;-80
2021/03/13 03:11:25;;;;;;;12.55;3.40;;;;;;;;;;2085840;28;20396;-81
2021/03/13 03:12:27;;;;;;;11.75;2.72;;;;;;;;;;2087131;28;20771;-81
2021/03/13 03:13:29;;;;;;;11.65;3.05;;;;;;;;;;2086542;28;20487;-81
2021/03/13 03:14:31;;;;;;;8.95;2.33;;;;;;;;;;2085367;28;20424;-80
2021/03/13 03:15:33;;;;;;;9.18;2.47;;;;;;;;;;2073505;28;20422;-81
2021/03/13 03:16:40;;;;;;;10.60;2.70;;;;;;;;;;2062822;28;21197;-80
2021/03/13 03:17:42;;;;;;;11.10;2.78;;;;;;;;;;2072599;28;20510;-81
2021/03/13 03:18:44;;;;;;;11.55;3.13;;;;;;;;;;2080838;28;20440;-81
2021/03/13 03:19:47;;;;;;;11.15;2.30;;;;;;;;;;2080697;28;20480;-81
2021/03/13 03:20:50;;;;;;;9.18;2.10;;;;;;;;;;2088229;28;20478;-80
2021/03/13 03:21:51;;;;;;;12.10;2.90;;;;;;;;;;2079471;28;20416;-81
2021/03/13 03:22:54;;;;;;;6.78;2.17;;;;;;;;;;2079656;28;20876;-80
2021/03/13 03:23:55;;;;;;;12.65;2.17;;;;;;;;;;2089826;28;20414;-81
2021/03/13 03:24:56;;;;;;;10.52;2.38;;;;;;;;;;2081768;28;20527;-81
2021/03/13 03:25:57;;;;;;;7.47;2.08;;;;;;;;;;2071434;28;20521;-81
2021/03/13 03:26:59;;;;;;;6.75;2.15;;;;;;;;;;2079009;28;20411;-81
2021/03/13 03:28:00;;;;;;;10.73;2.08;;;;;;;;;;2078960;28;20951;-81
2021/03/13 03:29:02;;;;;;;9.70;1.88;;;;;;;;;;2078444;28;20431;-81
2021/03/13 03:30:04;;;;;;;9.63;3.40;;;;;;;;;;2079627;28;20439;-81
2021/03/13 03:31:05;;;;;;;8.88;2.33;;;;;;;;;;2079743;28;20427;-80
2021/03/13 03:32:08;;;;;;;9.02;1.83;;;;;;;;;;2079485;28;21136;-81
2021/03/13 03:33:09;;;;;;;7.75;2.03;;;;;;;;;;2079381;28;20430;-81
2021/03/13 03:34:10;;;;;;;8.80;2.15;;;;;;;;;;2079552;28;20955;-81
2021/03/13 03:35:13;;;;;;;10.35;2.47;;;;;;;;;;2079392;28;20888;-82
2021/03/13 03:36:15;;;;;;;7.30;2.00;;;;;;;;;;2079770;28;20417;-81
2021/03/13 03:37:16;;;;;;;8.35;2.40;;;;;;;;;;2080119;28;20962;-81
2021/03/13 03:38:18;;;;;;;6.78;1.92;;;;;;;;;;2079957;28;20466;-81
2021/03/13 03:39:19;;;;;;;6.55;2.13;;;;;;;;;;2079367;28;20420;-81
2021/03/13 03:40:21;;;;;;;8.85;2.03;;;;;;;;;;2079776;28;20931;-81
2021/03/13 03:41:23;;;;;;;9.38;1.95;;;;;;;;;;2078322;28;20479;-81
2021/03/13 03:42:24;;;;;;;8.18;1.65;;;;;;;;;;2079044;28;20488;-81
2021/03/13 03:43:37;;;;;;;11.27;2.00;;;;;;;;;;2079734;28;20523;-81
2021/03/13 03:44:46;;;;;;;7.60;1.90;;;;;;;;;;2080305;28;20400;-81
2021/03/13 03:45:52;;;;;;;9.98;2.05;;;;;;;;;;2080048;28;20492;-81
2021/03/13 03:46:59;;;;;;;7.50;2.28;;;;;;;;;;2080169;28;20439;-81
2021/03/13 03:48:08;;;;;;;8.05;2.33;;;;;;;;;;2080137;28;20410;-81
2021/03/13 03:49:13;;;;;;;12.38;2.90;;;;;;;;;;2080316;28;20404;-81
2021/03/13 03:50:16;;;;;;;10.93;2.87;;;;;;;;;;2086479;28;20428;-80
2021/03/13 03:51:17;;;;;;;9.35;2.40;;;;;;;;;;2080488;28;20432;-82
2021/03/13 03:52:18;;;;;;;12.00;2.70;;;;;;;;;;2080109;28;21151;-82
2021/03/13 03:53:26;;;;;;;11.30;1.98;;;;;;;;;;2079266;28;20444;-82
2021/03/13 03:54:29;;;;;;;9.73;2.47;;;;;;;;;;2078541;28;20436;-83
2021/03/13 03:55:31;;;;;;;10.35;1.95;;;;;;;;;;2080243;28;20483;-83
2021/03/13 03:56:32;;;;;;;8.10;2.45;;;;;;;;;;2080083;28;20396;-82
2021/03/13 03:57:34;;;;;;;7.47;1.90;;;;;;;;;;2080047;28;20930;-82
2021/03/13 03:58:39;;;;;;;6.85;2.03;;;;;;;;;;2079019;28;20405;-80
2021/03/13 03:59:43;;;;;;;10.32;2.38;;;;;;;;;;2079550;28;20461;-81
2021/03/13 04:00:44;;;;;;;9.50;2.33;;;;;;;;;;2080843;28;20428;-80
2021/03/13 04:01:48;;;;;;;13.32;2.50;;;;;;;;;;2081196;28;20438;-82
2021/03/13 04:02:51;;;;;;;8.57;2.30;;;;;;;;;;2080764;28;20407;-81
2021/03/13 04:03:58;;;;;;;8.45;2.20;;;;;;;;;;2079964;28;20860;-82
2021/03/13 04:05:01;;;;;;;10.68;2.45;;;;;;;;;;2080396;28;20428;-81
2021/03/13 04:06:02;;;;;;;11.77;2.03;;;;;;;;;;2072657;28;20961;-81
2021/03/13 04:07:04;;;;;;;7.70;1.98;;;;;;;;;;2071650;28;20410;-82
2021/03/13 04:08:07;;;;;;;6.25;1.98;;;;;;;;;;2078872;28;20413;-82
2021/03/13 04:09:10;;;;;;;7.63;2.40;;;;;;;;;;2080074;28;20404;-82
2021/03/13 04:10:12;;;;;;;11.20;2.33;;;;;;;;;;2079974;28;20461;-81
2021/03/13 04:11:17;;;;;;;11.05;2.63;;;;;;;;;;2079714;28;20424;-82
2021/03/13 04:12:19;;;;;;;7.13;2.30;;;;;;;;;;2079230;28;20539;-82
2021/03/13 04:13:21;;;;;;;10.23;2.90;;;;;;;;;;2079166;28;20922;-81
2021/03/13 04:14:24;;;;;;;10.73;3.10;;;;;;;;;;2079292;28;20799;-82
2021/03/13 04:15:25;;;;;;;9.48;2.33;;;;;;;;;;2087441;28;20409;-81
2021/03/13 04:16:29;;;;;;;10.27;2.95;;;;;;;;;;2081312;28;20486;-81
2021/03/13 04:17:32;;;;;;;14.52;2.72;;;;;;;;;;2079736;28;20404;-81
2021/03/13 04:18:33;;;;;;;8.50;2.22;;;;;;;;;;2079392;28;20511;-81
2021/03/13 04:19:35;;;;;;;12.43;2.63;;;;;;;;;;2078815;28;20416;-81
2021/03/13 04:20:38;;;;;;;10.65;2.58;;;;;;;;;;2080008;28;20431;-81
2021/03/13 04:21:40;;;;;;;9.60;2.10;;;;;;;;;;2080307;28;20436;-82
2021/03/13 04:22:42;;;;;;;9.90;2.40;;;;;;;;;;2079807;28;20424;-82
2021/03/13 04:23:47;;;;;;;9.93;2.50;;;;;;;;;;2079265;28;20924;-81
2021/03/13 04:24:50;;;;;;;6.65;2.00;;;;;;;;;;2070615;28;20777;-81
2021/03/13 04:25:53;;;;;;;7.97;2.63;;;;;;;;;;2079887;28;20404;-82
2021/03/13 04:26:54;;;;;;;7.38;2.25;;;;;;;;;;2087245;28;20470;-81
2021/03/13 04:27:56;;;;;;;10.70;2.40;;;;;;;;;;2079062;28;20428;-81
2021/03/13 04:28:57;;;;;;;10.30;2.60;;;;;;;;;;2079062;28;20448;-81
2021/03/13 04:29:59;;;;;;;10.00;2.35;;;;;;;;;;2079908;28;20451;-81
2021/03/13 04:31:02;;;;;;;9.27;2.05;;;;;;;;;;2079992;28;20491;-81
2021/03/13 04:32:04;;;;;;;16.08;2.63;;;;;;;;;;2080272;28;20423;-81
2021/03/13 04:33:05;;;;;;;10.95;2.70;;;;;;;;;;2088419;28;20414;-81
2021/03/13 04:34:08;;;;;;;12.13;3.13;;;;;;;;;;2080928;28;20404;-81
2021/03/13 04:35:10;;;;;;;9.77;3.00;;;;;;;;;;2080875;28;20425;-81
2021/03/13 04:36:13;;;;;;;9.38;3.03;;;;;;;;;;2080261;28;20405;-81
2021/03/13 04:37:14;;;;;;;14.90;3.50;;;;;;;;;;2081078;28;20745;-80
2021/03/13 04:38:17;;;;;;;9.93;3.30;;;;;;;;;;2080762;28;20404;-80
2021/03/13 04:39:19;;;;;;;10.40;2.80;;;;;;;;;;2080605;28;20444;-81
2021/03/13 04:40:21;;;;;;;9.60;3.15;;;;;;;;;;2089517;28;20859;-80
2021/03/13 04:41:23;;;;;;;10.13;3.00;;;;;;;;;;2094083;28;20434;-80
2021/03/13 04:42:25;;;;;;;11.27;3.40;;;;;;;;;;2073160;28;20485;-80
2021/03/13 04:43:26;;;;;;;11.60;3.53;;;;;;;;;;2072439;28;20472;-81
2021/03/13 04:44:28;;;;;;;11.13;3.30;;;;;;;;;;2079422;28;20405;-81
2021/03/13 04:45:30;;;;;;;10.80;3.20;;;;;;;;;;2081236;28;20499;-81
2021/03/13 04:46:37;;;;;;;10.87;3.20;;;;;;;;;;2080763;28;20416;-81
2021/03/13 04:47:48;;;;;;;11.45;3.80;;;;;;;;;;2080646;28;20448;-81
2021/03/13 04:48:50;;;;;;;9.80;2.50;;;;;;;;;;2080554;28;20974;-81
2021/03/13 04:49:51;;;;;;;11.95;3.58;;;;;;;;;;2080483;28;20436;-81
2021/03/13 04:51:00;;;;;;;8.15;2.17;;;;;;;;;;2081351;28;20717;-81
2021/03/13 04:52:03;;;;;;;11.90;2.58;;;;;;;;;;2080030;28;20526;-81
2021/03/13 04:53:04;;;;;;;10.27;3.53;;;;;;;;;;2080766;28;20396;-81
2021/03/13 04:54:06;;;;;;;9.40;2.58;;;;;;;;;;2081085;28;20435;-81
2021/03/13 04:55:08;;;;;;;11.75;3.40;;;;;;;;;;2080776;28;20828;-80
2021/03/13 04:56:09;;;;;;;11.00;2.72;;;;;;;;;;2078482;28;20507;-81
2021/03/13 04:57:11;;;;;;;9.95;2.50;;;;;;;;;;2080782;28;20425;-81
2021/03/13 04:58:12;;;;;;;10.75;2.35;;;;;;;;;;2080640;28;20903;-81
2021/03/13 04:59:13;;;;;;;9.18;2.85;;;;;;;;;;2080637;28;20512;-81
2021/03/13 05:00:17;;;;;;;10.40;2.80;;;;;;;;;;2081195;28;20439;-80
2021/03/13 05:01:18;;;;;;;8.85;2.58;;;;;;;;;;2080933;28;20412;-81
2021/03/13 05:02:19;;;;;;;10.75;3.00;;;;;;;;;;2081140;28;20462;-81
2021/03/13 05:03:20;;;;;;;11.55;2.60;;;;;;;;;;2081299;28;20496;-80
2021/03/13 05:04:21;;;;;;;13.10;2.78;;;;;;;;;;2080305;28;20434;-81
2021/03/13 05:05:22;;;;;;;11.32;3.22;;;;;;;;;;2072823;28;20434;-81
2021/03/13 05:06:23;;;;;;;9.25;3.10;;;;;;;;;;2082409;28;20408;-80
2021/03/13 05:07:25;;;;;;;7.70;2.80;;;;;;;;;;2091005;28;20977;-81
2021/03/13 05:08:26;;;;;;;11.07;2.63;;;;;;;;;;2081244;28;20940;-81
2021/03/13 05:09:27;;;;;;;7.43;2.15;;;;;;;;;;2080142;28;20864;-81
2021/03/13 05:10:28;;;;;;;12.48;2.35;;;;;;;;;;2081090;28;21023;-81
2021/03/13 05:11:30;;;;;;;10.75;1.90;;;;;;;;;;2081535;28;20483;-81
2021/03/13 05:12:31;;;;;;;10.57;2.25;;;;;;;;;;2081112;28;20438;-81
2021/03/13 05:13:32;;;;;;;9.90;1.45;;;;;;;;;;2080477;28;20411;-81
2021/03/13 05:14:33;;;;;;;9.35;1.58;;;;;;;;;;2083839;28;20432;-81
2021/03/13 05:15:34;;;;;;;13.00;3.05;;;;;;;;;;2091185;28;20413;-81
2021/03/13 05:16:35;;;;;;;11.60;2.45;;;;;;;;;;2090982;28;20396;-81
2021/03/13 05:17:37;;;;;;;11.70;2.28;;;;;;;;;;2090677;28;20401;-81
2021/03/13 05:18:38;;;;;;;16.65;3.08;;;;;;;;;;2074596;28;20414;-81
2021/03/13 05:19:40;;;;;;;15.10;2.55;;;;;;;;;;2081857;28;20779;-81
2021/03/13 05:20:41;;;;;;;22.58;3.80;;;;;;;;;;2081338;28;20479;-81
2021/03/13 05:21:42;;;;;;;17.10;3.15;;;;;;;;;;2080607;28;20484;-81
2021/03/13 05:22:47;;;;;;;16.50;3.17;;;;;;;;;;2081197;28;20489;-81
2021/03/13 05:23:49;;;;;;;18.60;3.35;;;;;;;;;;2081141;28;20415;-81
2021/03/13 05:24:50;;;;;;;15.30;2.67;;;;;;;;;;2080776;28;20428;-81
2021/03/13 05:25:51;;;;;;;15.95;3.15;;;;;;;;;;2081156;28;20397;-81
2021/03/13 05:26:54;;;;;;;20.15;3.72;;;;;;;;;;2081045;28;20472;-82
2021/03/13 05:27:55;;;;;;;21.05;4.53;;;;;;;;;;2081224;28;20834;-81
2021/03/13 05:28:56;;;;;;;25.00;3.65;;;;;;;;;;2080706;28;20866;-82
2021/03/13 05:29:57;;;;;;;19.98;4.03;;;;;;;;;;2080965;28;21025;-81
2021/03/13 05:30:58;;;;;;;24.08;4.53;;;;;;;;;;2080583;28;20419;-81
2021/03/13 05:31:59;;;;;;;23.17;4.18;;;;;;;;;;2081544;28;20503;-81
2021/03/13 05:33:01;;;;;;;24.67;4.85;;;;;;;;;;2083941;28;20470;-81
2021/03/13 05:34:02;;;;;;;21.58;3.58;;;;;;;;;;2075141;28;20446;-82
2021/03/13 05:35:08;;;;;;;20.15;4.72;;;;;;;;;;2072511;28;20501;-81
2021/03/13 05:36:11;;;;;;;18.25;3.40;;;;;;;;;;2065098;28;20392;-81
2021/03/13 05:37:12;;;;;;;23.20;3.90;;;;;;;;;;2064842;28;20423;-81
2021/03/13 05:38:13;;;;;;;22.95;4.18;;;;;;;;;;2080049;28;20546;-81
2021/03/13 05:39:14;;;;;;;20.58;3.40;;;;;;;;;;2081047;28;20937;-81
2021/03/13 05:40:17;;;;;;;22.40;4.25;;;;;;;;;;2088444;28;20464;-81
2021/03/13 05:41:19;;;;;;;18.73;3.75;;;;;;;;;;2088639;28;20470;-81
2021/03/13 05:42:21;;;;;;;24.85;3.47;;;;;;;;;;2080153;28;20868;-81
2021/03/13 05:43:22;;;;;;;18.00;3.40;;;;;;;;;;2080450;28;20488;-81
2021/03/13 05:44:24;;;;;;;20.80;4.35;;;;;;;;;;2080342;28;20442;-81
2021/03/13 05:45:26;;;;;;;28.42;4.70;;;;;;;;;;2080408;28;20439;-81
2021/03/13 05:46:35;;;;;;;23.48;4.38;;;;;;;;;;2079067;28;20423;-81
2021/03/13 05:47:38;;;;;;;21.67;4.55;;;;;;;;;;2094207;28;20474;-81
2021/03/13 05:48:43;;;;;;;26.77;4.63;;;;;;;;;;2085034;28;20397;-80
2021/03/13 05:49:45;;;;;;;25.85;5.30;;;;;;;;;;2080880;28;20450;-80
2021/03/13 05:50:47;;;;;;;24.42;4.38;;;;;;;;;;2082245;28;20829;-80
2021/03/13 05:51:48;;;;;;;17.58;4.43;;;;;;;;;;2082984;28;20859;-80
2021/03/13 05:52:54;;;;;;;24.85;4.03;;;;;;;;;;2075042;28;20862;-80
2021/03/13 05:53:55;;;;;;;19.75;4.43;;;;;;;;;;2080395;28;20519;-81
2021/03/13 05:54:57;;;;;;;22.70;5.07;;;;;;;;;;2072322;28;20481;-80
2021/03/13 05:55:58;;;;;;;23.47;5.87;;;;;;;;;;2080602;28;20404;-81
2021/03/13 05:57:01;;;;;;;30.55;6.45;;;;;;;;;;2081837;28;20404;-81
2021/03/13 05:58:02;;;;;;;24.33;4.80;;;;;;;;;;2084308;28;20455;-81
2021/03/13 05:59:03;;;;;;;30.70;5.10;;;;;;;;;;2082260;28;20407;-81
2021/03/13 06:00:06;;;;;;;26.60;5.13;;;;;;;;;;2073305;28;20508;-80
2021/03/13 06:01:07;;;;;;;24.63;5.43;;;;;;;;;;2081455;28;20392;-81
2021/03/13 06:02:09;;;;;;;20.70;4.55;;;;;;;;;;2083491;28;20443;-81
2021/03/13 06:03:11;;;;;;;21.50;4.82;;;;;;;;;;2083333;28;20511;-81
2021/03/13 06:04:12;;;;;;;27.42;4.85;;;;;;;;;;2091311;28;20453;-81
2021/03/13 06:05:14;;;;;;;27.77;4.20;;;;;;;;;;2084289;28;20403;-81
2021/03/13 06:06:17;;;;;;;26.13;5.38;;;;;;;;;;2086981;28;20413;-80
2021/03/13 06:07:21;;;;;;;16.92;3.70;;;;;;;;;;2077516;28;20437;-80
2021/03/13 06:08:22;;;;;;;23.83;4.30;;;;;;;;;;2085585;28;20419;-81
2021/03/13 06:09:23;;;;;;;24.63;4.50;;;;;;;;;;2080882;28;20487;-80
2021/03/13 06:10:24;;;;;;;20.23;4.03;;;;;;;;;;2080519;28;20900;-80
2021/03/13 06:11:25;;;;;;;24.10;5.32;;;;;;;;;;2079587;28;20439;-80
2021/03/13 06:12:26;;;;;;;18.60;3.25;;;;;;;;;;2072527;28;20461;-81
2021/03/13 06:13:27;;;;;;;22.33;4.72;;;;;;;;;;2080522;28;20439;-80
2021/03/13 06:14:28;;;;;;;22.83;3.70;;;;;;;;;;2088381;28;20398;-81
2021/03/13 06:15:30;;;;;;;19.83;3.90;;;;;;;;;;2080857;28;20397;-80